sensor_id;sensor_type;location;lat;lon;timestamp;temperature;humidity
55777;DHT22;54079;44.540;18.784;2023-04-24T00:00:20;14.60;70.30
55777;DHT22;54079;44.540;18.784;2023-04-24T00:02:46;14.50;70.30
55777;DHT22;54079;44.540;18.784;2023-04-24T00:05:16;14.50;71.10
55777;DHT22;54079;44.540;18.784;2023-04-24T00:07:44;14.40;70.90
55777;DHT22;54079;44.540;18.784;2023-04-24T00:10:10;14.30;70.80
55777;DHT22;54079;44.540;18.784;2023-04-24T00:12:37;14.20;71.00
55777;DHT22;54079;44.540;18.784;2023-04-24T00:15:03;14.30;70.70
55777;DHT22;54079;44.540;18.784;2023-04-24T00:17:30;14.30;70.50
55777;DHT22;54079;44.540;18.784;2023-04-24T00:19:56;14.20;70.60
55777;DHT22;54079;44.540;18.784;2023-04-24T00:22:26;14.20;71.00
55777;DHT22;54079;44.540;18.784;2023-04-24T00:24:53;14.20;71.10
55777;DHT22;54079;44.540;18.784;2023-04-24T00:27:19;14.20;71.50
55777;DHT22;54079;44.540;18.784;2023-04-24T00:29:45;14.10;73.10
55777;DHT22;54079;44.540;18.784;2023-04-24T00:32:11;14.10;71.60
55777;DHT22;54079;44.540;18.784;2023-04-24T00:34:37;14.10;73.00
55777;DHT22;54079;44.540;18.784;2023-04-24T00:37:03;14.20;72.60
55777;DHT22;54079;44.540;18.784;2023-04-24T00:39:29;14.20;71.60
55777;DHT22;54079;44.540;18.784;2023-04-24T00:41:55;14.20;71.00
55777;DHT22;54079;44.540;18.784;2023-04-24T00:44:22;14.10;70.80
55777;DHT22;54079;44.540;18.784;2023-04-24T00:46:49;14.10;71.00
55777;DHT22;54079;44.540;18.784;2023-04-24T00:49:23;14.00;70.90
55777;DHT22;54079;44.540;18.784;2023-04-24T00:51:49;14.00;71.70
55777;DHT22;54079;44.540;18.784;2023-04-24T00:54:17;14.00;72.60
55777;DHT22;54079;44.540;18.784;2023-04-24T00:56:44;14.00;71.20
55777;DHT22;54079;44.540;18.784;2023-04-24T00:59:12;14.10;70.90
55777;DHT22;54079;44.540;18.784;2023-04-24T01:01:39;14.10;71.30
55777;DHT22;54079;44.540;18.784;2023-04-24T01:04:08;14.00;71.40
55777;DHT22;54079;44.540;18.784;2023-04-24T01:06:38;13.90;71.60
55777;DHT22;54079;44.540;18.784;2023-04-24T01:09:05;13.80;71.60
55777;DHT22;54079;44.540;18.784;2023-04-24T01:11:31;13.90;73.10
55777;DHT22;54079;44.540;18.784;2023-04-24T01:13:57;14.00;73.90
55777;DHT22;54079;44.540;18.784;2023-04-24T01:16:24;14.00;73.80
55777;DHT22;54079;44.540;18.784;2023-04-24T01:18:50;14.00;72.60
55777;DHT22;54079;44.540;18.784;2023-04-24T01:21:17;14.20;72.40
55777;DHT22;54079;44.540;18.784;2023-04-24T01:23:44;14.40;72.40
55777;DHT22;54079;44.540;18.784;2023-04-24T01:26:11;14.50;71.70
55777;DHT22;54079;44.540;18.784;2023-04-24T01:28:37;14.70;70.10
55777;DHT22;54079;44.540;18.784;2023-04-24T01:31:03;15.00;69.00
55777;DHT22;54079;44.540;18.784;2023-04-24T01:33:29;15.10;70.90
55777;DHT22;54079;44.540;18.784;2023-04-24T01:35:56;15.10;69.10
55777;DHT22;54079;44.540;18.784;2023-04-24T01:38:22;15.30;68.20
55777;DHT22;54079;44.540;18.784;2023-04-24T01:40:49;15.30;70.90
55777;DHT22;54079;44.540;18.784;2023-04-24T01:43:15;15.20;71.10
55777;DHT22;54079;44.540;18.784;2023-04-24T01:45:41;15.20;70.60
55777;DHT22;54079;44.540;18.784;2023-04-24T01:48:07;15.10;71.30
55777;DHT22;54079;44.540;18.784;2023-04-24T01:50:33;15.10;71.60
55777;DHT22;54079;44.540;18.784;2023-04-24T01:52:59;15.10;71.30
55777;DHT22;54079;44.540;18.784;2023-04-24T01:55:26;15.00;70.70
55777;DHT22;54079;44.540;18.784;2023-04-24T01:57:52;15.00;70.40
55777;DHT22;54079;44.540;18.784;2023-04-24T02:00:20;15.00;70.00
55777;DHT22;54079;44.540;18.784;2023-04-24T02:02:46;15.10;70.80
55777;DHT22;54079;44.540;18.784;2023-04-24T02:05:12;15.20;72.40
55777;DHT22;54079;44.540;18.784;2023-04-24T02:07:38;15.10;71.70
55777;DHT22;54079;44.540;18.784;2023-04-24T02:10:05;15.00;72.30
55777;DHT22;54079;44.540;18.784;2023-04-24T02:12:31;14.90;71.60
55777;DHT22;54079;44.540;18.784;2023-04-24T02:14:57;14.90;71.60
55777;DHT22;54079;44.540;18.784;2023-04-24T02:17:23;14.90;72.00
55777;DHT22;54079;44.540;18.784;2023-04-24T02:19:48;14.80;71.40
55777;DHT22;54079;44.540;18.784;2023-04-24T02:22:14;14.90;70.50
55777;DHT22;54079;44.540;18.784;2023-04-24T02:24:40;14.90;71.10
55777;DHT22;54079;44.540;18.784;2023-04-24T02:27:06;14.80;69.40
55777;DHT22;54079;44.540;18.784;2023-04-24T02:29:33;14.80;69.10
55777;DHT22;54079;44.540;18.784;2023-04-24T02:31:59;14.80;69.00
55777;DHT22;54079;44.540;18.784;2023-04-24T02:34:25;14.80;69.70
55777;DHT22;54079;44.540;18.784;2023-04-24T02:36:51;14.70;69.70
55777;DHT22;54079;44.540;18.784;2023-04-24T02:39:19;14.70;70.00
55777;DHT22;54079;44.540;18.784;2023-04-24T02:41:45;14.70;70.20
55777;DHT22;54079;44.540;18.784;2023-04-24T02:44:11;14.50;70.40
55777;DHT22;54079;44.540;18.784;2023-04-24T02:46:37;14.40;71.20
55777;DHT22;54079;44.540;18.784;2023-04-24T02:49:03;14.40;72.70
55777;DHT22;54079;44.540;18.784;2023-04-24T02:51:29;14.40;71.80
55777;DHT22;54079;44.540;18.784;2023-04-24T02:53:56;14.30;72.40
55777;DHT22;54079;44.540;18.784;2023-04-24T02:56:22;14.10;72.40
55777;DHT22;54079;44.540;18.784;2023-04-24T02:58:48;14.00;73.40
55777;DHT22;54079;44.540;18.784;2023-04-24T03:01:14;14.10;71.90
55777;DHT22;54079;44.540;18.784;2023-04-24T03:03:40;14.20;70.90
55777;DHT22;54079;44.540;18.784;2023-04-24T03:06:06;14.20;72.00
55777;DHT22;54079;44.540;18.784;2023-04-24T03:08:33;14.00;71.90
55777;DHT22;54079;44.540;18.784;2023-04-24T03:10:59;14.00;72.80
55777;DHT22;54079;44.540;18.784;2023-04-24T03:13:25;13.80;72.00
55777;DHT22;54079;44.540;18.784;2023-04-24T03:15:51;13.90;71.60
55777;DHT22;54079;44.540;18.784;2023-04-24T03:18:18;14.10;71.90
55777;DHT22;54079;44.540;18.784;2023-04-24T03:20:46;14.10;72.40
55777;DHT22;54079;44.540;18.784;2023-04-24T03:23:19;14.20;72.60
55777;DHT22;54079;44.540;18.784;2023-04-24T03:25:45;14.20;71.80
55777;DHT22;54079;44.540;18.784;2023-04-24T03:28:11;14.20;73.30
55777;DHT22;54079;44.540;18.784;2023-04-24T03:30:37;14.40;71.70
55777;DHT22;54079;44.540;18.784;2023-04-24T03:33:03;14.40;72.40
55777;DHT22;54079;44.540;18.784;2023-04-24T03:35:29;14.40;72.00
55777;DHT22;54079;44.540;18.784;2023-04-24T03:37:55;14.50;71.10
55777;DHT22;54079;44.540;18.784;2023-04-24T03:40:21;14.70;71.10
55777;DHT22;54079;44.540;18.784;2023-04-24T03:42:47;14.90;70.90
55777;DHT22;54079;44.540;18.784;2023-04-24T03:45:13;15.00;68.70
55777;DHT22;54079;44.540;18.784;2023-04-24T03:47:39;15.10;69.10
55777;DHT22;54079;44.540;18.784;2023-04-24T03:50:05;15.20;68.00
55777;DHT22;54079;44.540;18.784;2023-04-24T03:52:31;15.20;69.10
55777;DHT22;54079;44.540;18.784;2023-04-24T03:54:57;15.30;68.00
55777;DHT22;54079;44.540;18.784;2023-04-24T03:57:23;15.30;67.80
55777;DHT22;54079;44.540;18.784;2023-04-24T03:59:49;15.50;69.10
55777;DHT22;54079;44.540;18.784;2023-04-24T04:02:15;15.60;67.30
55777;DHT22;54079;44.540;18.784;2023-04-24T04:04:41;15.60;68.40
55777;DHT22;54079;44.540;18.784;2023-04-24T04:07:07;15.70;69.80
55777;DHT22;54079;44.540;18.784;2023-04-24T04:09:34;15.60;68.20
55777;DHT22;54079;44.540;18.784;2023-04-24T04:12:00;15.70;68.70
55777;DHT22;54079;44.540;18.784;2023-04-24T04:14:27;15.60;70.20
55777;DHT22;54079;44.540;18.784;2023-04-24T04:16:53;15.70;69.10
55777;DHT22;54079;44.540;18.784;2023-04-24T04:19:18;15.60;70.20
55777;DHT22;54079;44.540;18.784;2023-04-24T04:21:44;15.60;70.40
55777;DHT22;54079;44.540;18.784;2023-04-24T04:24:11;15.60;71.70
55777;DHT22;54079;44.540;18.784;2023-04-24T04:26:38;15.40;70.40
55777;DHT22;54079;44.540;18.784;2023-04-24T04:29:04;15.60;70.90
55777;DHT22;54079;44.540;18.784;2023-04-24T04:31:32;15.70;72.50
55777;DHT22;54079;44.540;18.784;2023-04-24T04:33:58;15.80;71.70
55777;DHT22;54079;44.540;18.784;2023-04-24T04:36:24;15.70;69.80
55777;DHT22;54079;44.540;18.784;2023-04-24T04:38:51;15.80;68.40
55777;DHT22;54079;44.540;18.784;2023-04-24T04:41:17;16.10;70.10
55777;DHT22;54079;44.540;18.784;2023-04-24T04:43:43;16.20;68.90
55777;DHT22;54079;44.540;18.784;2023-04-24T04:46:09;16.30;69.30
55777;DHT22;54079;44.540;18.784;2023-04-24T04:48:36;16.50;67.00
55777;DHT22;54079;44.540;18.784;2023-04-24T04:51:03;16.60;66.90
55777;DHT22;54079;44.540;18.784;2023-04-24T04:53:29;16.70;66.50
55777;DHT22;54079;44.540;18.784;2023-04-24T04:55:55;16.90;65.20
55777;DHT22;54079;44.540;18.784;2023-04-24T04:58:21;17.10;66.10
55777;DHT22;54079;44.540;18.784;2023-04-24T05:00:47;17.30;62.00
55777;DHT22;54079;44.540;18.784;2023-04-24T05:03:14;17.60;62.90
55777;DHT22;54079;44.540;18.784;2023-04-24T05:05:40;17.80;59.80
55777;DHT22;54079;44.540;18.784;2023-04-24T05:08:07;18.00;65.30
55777;DHT22;54079;44.540;18.784;2023-04-24T05:10:34;18.30;66.00
55777;DHT22;54079;44.540;18.784;2023-04-24T05:13:00;18.60;60.80
55777;DHT22;54079;44.540;18.784;2023-04-24T05:15:26;18.80;60.30
55777;DHT22;54079;44.540;18.784;2023-04-24T05:17:52;18.80;66.20
55777;DHT22;54079;44.540;18.784;2023-04-24T05:20:18;18.80;62.50
55777;DHT22;54079;44.540;18.784;2023-04-24T05:22:44;19.00;60.90
55777;DHT22;54079;44.540;18.784;2023-04-24T05:25:10;19.00;64.50
55777;DHT22;54079;44.540;18.784;2023-04-24T05:27:38;18.90;65.00
55777;DHT22;54079;44.540;18.784;2023-04-24T05:30:05;19.00;65.10
55777;DHT22;54079;44.540;18.784;2023-04-24T05:32:31;19.20;63.40
55777;DHT22;54079;44.540;18.784;2023-04-24T05:34:57;19.40;64.70
55777;DHT22;54079;44.540;18.784;2023-04-24T05:37:23;19.60;63.10
55777;DHT22;54079;44.540;18.784;2023-04-24T05:39:49;19.80;63.00
55777;DHT22;54079;44.540;18.784;2023-04-24T05:42:15;19.90;61.50
55777;DHT22;54079;44.540;18.784;2023-04-24T05:44:41;19.80;61.50
55777;DHT22;54079;44.540;18.784;2023-04-24T05:47:07;19.80;62.80
55777;DHT22;54079;44.540;18.784;2023-04-24T05:49:33;19.80;61.60
55777;DHT22;54079;44.540;18.784;2023-04-24T05:51:58;19.90;60.70
55777;DHT22;54079;44.540;18.784;2023-04-24T05:54:24;19.80;62.50
55777;DHT22;54079;44.540;18.784;2023-04-24T05:56:50;19.70;64.00
55777;DHT22;54079;44.540;18.784;2023-04-24T05:59:16;19.70;66.20
55777;DHT22;54079;44.540;18.784;2023-04-24T06:01:42;19.40;65.10
55777;DHT22;54079;44.540;18.784;2023-04-24T06:04:08;19.10;67.40
55777;DHT22;54079;44.540;18.784;2023-04-24T06:06:35;18.70;60.60
55777;DHT22;54079;44.540;18.784;2023-04-24T06:09:01;18.40;62.80
55777;DHT22;54079;44.540;18.784;2023-04-24T06:11:28;18.50;63.20
55777;DHT22;54079;44.540;18.784;2023-04-24T06:13:54;18.40;65.70
55777;DHT22;54079;44.540;18.784;2023-04-24T06:16:20;18.40;62.90
55777;DHT22;54079;44.540;18.784;2023-04-24T06:18:46;18.30;63.60
55777;DHT22;54079;44.540;18.784;2023-04-24T06:21:12;18.10;66.90
55777;DHT22;54079;44.540;18.784;2023-04-24T06:23:38;18.10;64.30
55777;DHT22;54079;44.540;18.784;2023-04-24T06:26:04;18.00;71.20
55777;DHT22;54079;44.540;18.784;2023-04-24T06:28:30;17.80;71.10
55777;DHT22;54079;44.540;18.784;2023-04-24T06:30:56;17.90;67.50
55777;DHT22;54079;44.540;18.784;2023-04-24T06:33:22;17.90;66.70
55777;DHT22;54079;44.540;18.784;2023-04-24T06:35:48;18.00;66.80
55777;DHT22;54079;44.540;18.784;2023-04-24T06:38:14;18.10;65.40
55777;DHT22;54079;44.540;18.784;2023-04-24T06:40:41;18.20;65.20
55777;DHT22;54079;44.540;18.784;2023-04-24T06:43:07;18.20;65.90
55777;DHT22;54079;44.540;18.784;2023-04-24T06:45:33;18.30;63.50
55777;DHT22;54079;44.540;18.784;2023-04-24T06:47:59;18.30;63.70
55777;DHT22;54079;44.540;18.784;2023-04-24T06:50:25;18.40;65.90
55777;DHT22;54079;44.540;18.784;2023-04-24T06:52:51;18.30;68.20
55777;DHT22;54079;44.540;18.784;2023-04-24T06:55:17;18.30;68.80
55777;DHT22;54079;44.540;18.784;2023-04-24T06:57:43;18.20;70.50
55777;DHT22;54079;44.540;18.784;2023-04-24T07:00:10;18.20;71.00
55777;DHT22;54079;44.540;18.784;2023-04-24T07:02:36;18.30;69.00
55777;DHT22;54079;44.540;18.784;2023-04-24T07:05:04;18.40;68.10
55777;DHT22;54079;44.540;18.784;2023-04-24T07:07:30;18.20;65.00
55777;DHT22;54079;44.540;18.784;2023-04-24T07:09:57;18.10;65.40
55777;DHT22;54079;44.540;18.784;2023-04-24T07:12:23;18.30;66.80
55777;DHT22;54079;44.540;18.784;2023-04-24T07:14:50;18.40;69.50
55777;DHT22;54079;44.540;18.784;2023-04-24T07:17:16;18.70;72.80
55777;DHT22;54079;44.540;18.784;2023-04-24T07:19:42;19.00;71.80
55777;DHT22;54079;44.540;18.784;2023-04-24T07:22:08;19.10;72.70
55777;DHT22;54079;44.540;18.784;2023-04-24T07:24:34;19.10;72.00
55777;DHT22;54079;44.540;18.784;2023-04-24T07:27:00;19.10;72.30
55777;DHT22;54079;44.540;18.784;2023-04-24T07:29:29;19.10;71.80
55777;DHT22;54079;44.540;18.784;2023-04-24T07:31:55;19.20;71.90
55777;DHT22;54079;44.540;18.784;2023-04-24T07:34:22;19.40;71.00
55777;DHT22;54079;44.540;18.784;2023-04-24T07:36:47;19.60;66.90
55777;DHT22;54079;44.540;18.784;2023-04-24T07:39:13;19.70;65.90
55777;DHT22;54079;44.540;18.784;2023-04-24T07:41:39;20.30;68.20
55777;DHT22;54079;44.540;18.784;2023-04-24T07:44:05;20.60;71.00
55777;DHT22;54079;44.540;18.784;2023-04-24T07:46:31;20.80;70.10
55777;DHT22;54079;44.540;18.784;2023-04-24T07:48:58;20.70;68.50
55777;DHT22;54079;44.540;18.784;2023-04-24T07:51:25;20.50;68.80
55777;DHT22;54079;44.540;18.784;2023-04-24T07:53:53;20.70;67.60
55777;DHT22;54079;44.540;18.784;2023-04-24T07:56:20;20.70;65.20
55777;DHT22;54079;44.540;18.784;2023-04-24T07:58:46;20.90;64.10
55777;DHT22;54079;44.540;18.784;2023-04-24T08:01:12;21.10;63.30
55777;DHT22;54079;44.540;18.784;2023-04-24T08:03:38;21.30;64.80
55777;DHT22;54079;44.540;18.784;2023-04-24T08:06:04;21.80;63.60
55777;DHT22;54079;44.540;18.784;2023-04-24T08:08:30;22.10;61.10
55777;DHT22;54079;44.540;18.784;2023-04-24T08:10:56;22.80;63.10
55777;DHT22;54079;44.540;18.784;2023-04-24T08:13:22;23.20;60.20
55777;DHT22;54079;44.540;18.784;2023-04-24T08:15:48;23.40;58.90
55777;DHT22;54079;44.540;18.784;2023-04-24T08:18:14;23.70;58.70
55777;DHT22;54079;44.540;18.784;2023-04-24T08:20:41;23.90;57.10
55777;DHT22;54079;44.540;18.784;2023-04-24T08:23:07;24.20;57.60
55777;DHT22;54079;44.540;18.784;2023-04-24T08:25:34;24.50;57.50
55777;DHT22;54079;44.540;18.784;2023-04-24T08:28:02;24.00;57.60
55777;DHT22;54079;44.540;18.784;2023-04-24T08:30:29;23.70;57.10
55777;DHT22;54079;44.540;18.784;2023-04-24T08:32:56;23.80;57.80
55777;DHT22;54079;44.540;18.784;2023-04-24T08:35:21;24.10;58.70
55777;DHT22;54079;44.540;18.784;2023-04-24T08:37:48;24.10;57.90
55777;DHT22;54079;44.540;18.784;2023-04-24T08:40:15;24.30;58.90
55777;DHT22;54079;44.540;18.784;2023-04-24T08:42:42;24.50;59.30
55777;DHT22;54079;44.540;18.784;2023-04-24T08:45:10;25.30;58.60
55777;DHT22;54079;44.540;18.784;2023-04-24T08:47:38;26.20;55.80
55777;DHT22;54079;44.540;18.784;2023-04-24T08:50:05;27.10;52.80
55777;DHT22;54079;44.540;18.784;2023-04-24T08:52:33;28.20;52.30
55777;DHT22;54079;44.540;18.784;2023-04-24T08:55:03;28.80;49.70
55777;DHT22;54079;44.540;18.784;2023-04-24T08:57:29;28.60;48.80
55777;DHT22;54079;44.540;18.784;2023-04-24T08:59:58;28.60;48.40
55777;DHT22;54079;44.540;18.784;2023-04-24T09:02:25;26.40;49.40
55777;DHT22;54079;44.540;18.784;2023-04-24T09:04:55;26.90;48.80
55777;DHT22;54079;44.540;18.784;2023-04-24T09:07:27;26.90;48.30
55777;DHT22;54079;44.540;18.784;2023-04-24T09:09:56;25.40;49.80
55777;DHT22;54079;44.540;18.784;2023-04-24T09:12:22;23.80;51.30
55777;DHT22;54079;44.540;18.784;2023-04-24T09:14:48;23.50;52.80
55777;DHT22;54079;44.540;18.784;2023-04-24T09:17:15;23.00;52.50
55777;DHT22;54079;44.540;18.784;2023-04-24T09:19:41;22.90;53.00
55777;DHT22;54079;44.540;18.784;2023-04-24T09:22:07;22.80;52.90
55777;DHT22;54079;44.540;18.784;2023-04-24T09:24:35;22.90;52.50
55777;DHT22;54079;44.540;18.784;2023-04-24T09:27:01;23.30;53.60
55777;DHT22;54079;44.540;18.784;2023-04-24T09:29:27;23.40;53.20
55777;DHT22;54079;44.540;18.784;2023-04-24T09:31:53;23.60;52.80
55777;DHT22;54079;44.540;18.784;2023-04-24T09:34:24;23.80;52.40
55777;DHT22;54079;44.540;18.784;2023-04-24T09:36:51;23.60;52.40
55777;DHT22;54079;44.540;18.784;2023-04-24T09:39:18;23.80;53.00
55777;DHT22;54079;44.540;18.784;2023-04-24T09:41:53;24.30;53.40
55777;DHT22;54079;44.540;18.784;2023-04-24T09:44:21;24.60;53.10
55777;DHT22;54079;44.540;18.784;2023-04-24T09:46:55;24.80;52.90
55777;DHT22;54079;44.540;18.784;2023-04-24T09:49:29;24.60;51.70
55777;DHT22;54079;44.540;18.784;2023-04-24T09:52:10;24.60;52.90
55777;DHT22;54079;44.540;18.784;2023-04-24T09:54:38;24.70;53.00
55777;DHT22;54079;44.540;18.784;2023-04-24T09:57:04;24.70;51.20
55777;DHT22;54079;44.540;18.784;2023-04-24T09:59:30;25.00;51.90
55777;DHT22;54079;44.540;18.784;2023-04-24T10:01:56;24.70;51.50
55777;DHT22;54079;44.540;18.784;2023-04-24T10:04:28;24.60;51.40
55777;DHT22;54079;44.540;18.784;2023-04-24T10:06:56;24.50;52.20
55777;DHT22;54079;44.540;18.784;2023-04-24T10:09:25;24.20;51.70
55777;DHT22;54079;44.540;18.784;2023-04-24T10:11:53;24.00;52.60
55777;DHT22;54079;44.540;18.784;2023-04-24T10:14:23;23.40;53.90
55777;DHT22;54079;44.540;18.784;2023-04-24T10:16:53;22.70;54.50
55777;DHT22;54079;44.540;18.784;2023-04-24T10:19:19;23.10;55.20
55777;DHT22;54079;44.540;18.784;2023-04-24T10:21:46;23.60;54.10
55777;DHT22;54079;44.540;18.784;2023-04-24T10:24:17;23.90;54.00
55777;DHT22;54079;44.540;18.784;2023-04-24T10:26:45;24.60;53.90
55777;DHT22;54079;44.540;18.784;2023-04-24T10:29:12;25.00;53.00
55777;DHT22;54079;44.540;18.784;2023-04-24T10:31:39;24.70;52.80
55777;DHT22;54079;44.540;18.784;2023-04-24T10:34:09;25.20;53.60
55777;DHT22;54079;44.540;18.784;2023-04-24T10:36:41;26.30;52.00
55777;DHT22;54079;44.540;18.784;2023-04-24T10:39:12;26.80;51.70
55777;DHT22;54079;44.540;18.784;2023-04-24T10:41:38;27.30;51.80
55777;DHT22;54079;44.540;18.784;2023-04-24T10:44:09;27.50;51.00
55777;DHT22;54079;44.540;18.784;2023-04-24T10:46:43;27.60;50.10
55777;DHT22;54079;44.540;18.784;2023-04-24T10:49:09;27.40;51.10
55777;DHT22;54079;44.540;18.784;2023-04-24T10:51:51;27.30;50.80
55777;DHT22;54079;44.540;18.784;2023-04-24T10:54:35;27.40;50.90
55777;DHT22;54079;44.540;18.784;2023-04-24T10:59:48;28.60;49.30
55777;DHT22;54079;44.540;18.784;2023-04-24T11:02:15;28.60;48.80
55777;DHT22;54079;44.540;18.784;2023-04-24T11:04:41;28.50;48.10
55777;DHT22;54079;44.540;18.784;2023-04-24T11:07:13;28.50;49.40
55777;DHT22;54079;44.540;18.784;2023-04-24T11:09:39;28.50;50.10
55777;DHT22;54079;44.540;18.784;2023-04-24T11:12:09;28.40;48.30
55777;DHT22;54079;44.540;18.784;2023-04-24T11:17:42;28.20;49.80
55777;DHT22;54079;44.540;18.784;2023-04-24T11:20:17;28.20;50.50
55777;DHT22;54079;44.540;18.784;2023-04-24T11:22:43;28.40;50.20
55777;DHT22;54079;44.540;18.784;2023-04-24T11:25:09;28.50;49.80
55777;DHT22;54079;44.540;18.784;2023-04-24T11:27:44;28.60;49.10
55777;DHT22;54079;44.540;18.784;2023-04-24T11:30:12;28.30;48.50
55777;DHT22;54079;44.540;18.784;2023-04-24T11:32:39;28.40;48.90
55777;DHT22;54079;44.540;18.784;2023-04-24T11:37:46;28.80;49.70
55777;DHT22;54079;44.540;18.784;2023-04-24T11:40:15;29.10;49.80
55777;DHT22;54079;44.540;18.784;2023-04-24T11:42:46;28.90;48.60
55777;DHT22;54079;44.540;18.784;2023-04-24T11:45:14;29.10;48.50
55777;DHT22;54079;44.540;18.784;2023-04-24T11:47:41;29.20;48.80
55777;DHT22;54079;44.540;18.784;2023-04-24T11:50:09;28.60;47.50
55777;DHT22;54079;44.540;18.784;2023-04-24T11:52:40;28.50;49.20
55777;DHT22;54079;44.540;18.784;2023-04-24T11:57:50;28.50;48.90
55777;DHT22;54079;44.540;18.784;2023-04-24T12:00:35;28.60;48.40
55777;DHT22;54079;44.540;18.784;2023-04-24T12:03:09;28.70;49.20
55777;DHT22;54079;44.540;18.784;2023-04-24T12:05:35;28.70;48.90
55777;DHT22;54079;44.540;18.784;2023-04-24T12:08:02;28.70;48.80
55777;DHT22;54079;44.540;18.784;2023-04-24T12:10:29;28.50;48.80
55777;DHT22;54079;44.540;18.784;2023-04-24T12:12:57;28.50;49.00
55777;DHT22;54079;44.540;18.784;2023-04-24T12:15:24;28.40;50.00
55777;DHT22;54079;44.540;18.784;2023-04-24T12:17:54;28.50;49.00
55777;DHT22;54079;44.540;18.784;2023-04-24T12:20:33;28.30;49.50
55777;DHT22;54079;44.540;18.784;2023-04-24T12:23:00;27.80;48.80
55777;DHT22;54079;44.540;18.784;2023-04-24T12:25:31;27.70;49.70
55777;DHT22;54079;44.540;18.784;2023-04-24T12:30:30;27.80;49.20
55777;DHT22;54079;44.540;18.784;2023-04-24T12:33:00;27.60;49.60
55777;DHT22;54079;44.540;18.784;2023-04-24T12:35:28;27.80;49.30
55777;DHT22;54079;44.540;18.784;2023-04-24T12:37:55;27.90;49.20
55777;DHT22;54079;44.540;18.784;2023-04-24T12:40:21;27.90;48.30
55777;DHT22;54079;44.540;18.784;2023-04-24T12:42:49;27.60;48.20
55777;DHT22;54079;44.540;18.784;2023-04-24T12:45:17;27.80;49.50
55777;DHT22;54079;44.540;18.784;2023-04-24T12:47:44;27.90;49.90
55777;DHT22;54079;44.540;18.784;2023-04-24T12:50:12;28.00;49.30
55777;DHT22;54079;44.540;18.784;2023-04-24T12:52:39;28.30;48.90
55777;DHT22;54079;44.540;18.784;2023-04-24T12:55:06;28.60;48.50
55777;DHT22;54079;44.540;18.784;2023-04-24T12:57:37;28.60;47.80
55777;DHT22;54079;44.540;18.784;2023-04-24T13:00:03;28.50;47.90
55777;DHT22;54079;44.540;18.784;2023-04-24T13:02:30;28.60;46.90
55777;DHT22;54079;44.540;18.784;2023-04-24T13:04:58;28.60;47.90
55777;DHT22;54079;44.540;18.784;2023-04-24T13:07:25;28.50;47.50
55777;DHT22;54079;44.540;18.784;2023-04-24T13:09:51;28.40;46.40
55777;DHT22;54079;44.540;18.784;2023-04-24T13:12:18;28.50;46.80
55777;DHT22;54079;44.540;18.784;2023-04-24T13:14:44;28.60;47.10
55777;DHT22;54079;44.540;18.784;2023-04-24T13:17:11;28.80;47.20
55777;DHT22;54079;44.540;18.784;2023-04-24T13:19:43;29.00;47.40
55777;DHT22;54079;44.540;18.784;2023-04-24T13:22:11;29.20;47.50
55777;DHT22;54079;44.540;18.784;2023-04-24T13:24:38;29.20;47.40
55777;DHT22;54079;44.540;18.784;2023-04-24T13:27:05;29.10;47.90
55777;DHT22;54079;44.540;18.784;2023-04-24T13:29:31;28.80;47.90
55777;DHT22;54079;44.540;18.784;2023-04-24T13:31:57;28.80;47.50
55777;DHT22;54079;44.540;18.784;2023-04-24T13:34:24;28.80;47.10
55777;DHT22;54079;44.540;18.784;2023-04-24T13:36:55;28.60;47.60
55777;DHT22;54079;44.540;18.784;2023-04-24T13:39:21;28.50;48.10
55777;DHT22;54079;44.540;18.784;2023-04-24T13:41:47;28.50;48.70
55777;DHT22;54079;44.540;18.784;2023-04-24T13:44:15;28.40;47.90
55777;DHT22;54079;44.540;18.784;2023-04-24T13:46:42;28.30;47.20
55777;DHT22;54079;44.540;18.784;2023-04-24T13:49:10;27.90;47.60
55777;DHT22;54079;44.540;18.784;2023-04-24T13:51:36;27.40;48.30
55777;DHT22;54079;44.540;18.784;2023-04-24T13:54:02;27.10;48.70
55777;DHT22;54079;44.540;18.784;2023-04-24T13:56:28;26.80;49.30
55777;DHT22;54079;44.540;18.784;2023-04-24T13:58:54;26.50;48.50
55777;DHT22;54079;44.540;18.784;2023-04-24T14:01:20;26.40;48.90
55777;DHT22;54079;44.540;18.784;2023-04-24T14:03:51;26.10;49.80
55777;DHT22;54079;44.540;18.784;2023-04-24T14:06:17;26.10;49.80
55777;DHT22;54079;44.540;18.784;2023-04-24T14:08:43;26.10;49.90
55777;DHT22;54079;44.540;18.784;2023-04-24T14:11:09;26.20;49.80
55777;DHT22;54079;44.540;18.784;2023-04-24T14:13:36;26.30;49.90
55777;DHT22;54079;44.540;18.784;2023-04-24T14:16:03;26.30;50.00
55777;DHT22;54079;44.540;18.784;2023-04-24T14:18:30;26.30;50.00
55777;DHT22;54079;44.540;18.784;2023-04-24T14:20:56;26.20;50.00
55777;DHT22;54079;44.540;18.784;2023-04-24T14:23:22;26.00;49.70
55777;DHT22;54079;44.540;18.784;2023-04-24T14:25:47;25.60;50.20
55777;DHT22;54079;44.540;18.784;2023-04-24T14:28:17;25.40;50.70
55777;DHT22;54079;44.540;18.784;2023-04-24T14:30:43;25.30;51.40
55777;DHT22;54079;44.540;18.784;2023-04-24T14:33:09;25.20;51.40
55777;DHT22;54079;44.540;18.784;2023-04-24T14:35:36;25.00;51.40
55777;DHT22;54079;44.540;18.784;2023-04-24T14:38:02;24.80;51.10
55777;DHT22;54079;44.540;18.784;2023-04-24T14:40:28;24.60;51.40
55777;DHT22;54079;44.540;18.784;2023-04-24T14:42:54;24.50;52.50
55777;DHT22;54079;44.540;18.784;2023-04-24T14:45:20;24.70;51.90
55777;DHT22;54079;44.540;18.784;2023-04-24T14:47:46;24.90;52.00
55777;DHT22;54079;44.540;18.784;2023-04-24T14:50:12;24.90;50.90
55777;DHT22;54079;44.540;18.784;2023-04-24T14:52:38;24.80;51.20
55777;DHT22;54079;44.540;18.784;2023-04-24T14:55:05;24.30;50.20
55777;DHT22;54079;44.540;18.784;2023-04-24T14:57:35;24.40;52.60
55777;DHT22;54079;44.540;18.784;2023-04-24T15:00:05;24.60;51.80
55777;DHT22;54079;44.540;18.784;2023-04-24T15:02:34;24.90;51.90
55777;DHT22;54079;44.540;18.784;2023-04-24T15:05:00;25.10;52.00
55777;DHT22;54079;44.540;18.784;2023-04-24T15:07:26;25.20;51.50
55777;DHT22;54079;44.540;18.784;2023-04-24T15:09:53;25.00;49.70
55777;DHT22;54079;44.540;18.784;2023-04-24T15:12:19;24.90;51.60
55777;DHT22;54079;44.540;18.784;2023-04-24T15:14:45;24.70;50.70
55777;DHT22;54079;44.540;18.784;2023-04-24T15:17:11;24.70;51.90
55777;DHT22;54079;44.540;18.784;2023-04-24T15:19:37;24.50;51.40
55777;DHT22;54079;44.540;18.784;2023-04-24T15:22:03;24.40;52.10
55777;DHT22;54079;44.540;18.784;2023-04-24T15:24:29;24.30;51.70
55777;DHT22;54079;44.540;18.784;2023-04-24T15:26:55;24.20;52.20